createdAt,value
2023-05-10T00:00:27.431Z,14.00
2023-05-10T00:02:57.527Z,13.90
2023-05-10T00:05:27.065Z,14.00
2023-05-10T00:07:56.921Z,14.00
2023-05-10T00:10:28.122Z,14.00
2023-05-10T00:12:57.983Z,14.00
2023-05-10T00:15:27.932Z,14.00
2023-05-10T00:17:57.688Z,14.10
2023-05-10T00:20:27.601Z,14.10
2023-05-10T00:22:57.391Z,14.10
2023-05-10T00:25:28.507Z,13.90
2023-05-10T00:27:58.381Z,13.80
2023-05-10T00:30:26.693Z,13.60
2023-05-10T00:32:56.563Z,13.50
2023-05-10T00:35:27.007Z,13.50
2023-05-10T00:37:56.534Z,13.30
2023-05-10T00:40:25.940Z,13.30
2023-05-10T00:42:55.782Z,13.30
2023-05-10T00:45:26.027Z,13.20
2023-05-10T00:47:56.949Z,13.20
2023-05-10T00:50:27.152Z,13.00
2023-05-10T00:52:57.206Z,13.00
2023-05-10T00:55:28.777Z,13.00
2023-05-10T00:57:58.713Z,13.00
2023-05-10T01:00:28.574Z,12.90
2023-05-10T01:02:58.742Z,12.90
2023-05-10T01:05:29.400Z,12.90
2023-05-10T01:08:14.387Z,12.90
2023-05-10T01:14:27.029Z,12.90
2023-05-10T01:16:56.930Z,12.90
2023-05-10T01:19:28.914Z,12.90
2023-05-10T01:22:08.111Z,12.90
2023-05-10T01:25:01.484Z,12.90
2023-05-10T01:27:59.021Z,12.90
2023-05-10T01:30:52.904Z,12.90
2023-05-10T01:33:26.724Z,12.80
2023-05-10T01:36:05.519Z,12.90
2023-05-10T01:38:43.929Z,12.90
2023-05-10T01:41:18.972Z,12.90
2023-05-10T01:43:56.028Z,12.90
2023-05-10T01:46:31.040Z,12.80
2023-05-10T01:49:04.237Z,12.80
2023-05-10T01:51:41.519Z,12.90
2023-05-10T01:54:14.361Z,12.80
2023-05-10T01:56:45.898Z,12.70
2023-05-10T01:59:19.181Z,12.70
2023-05-10T02:01:49.469Z,12.70
2023-05-10T02:04:23.856Z,12.70
2023-05-10T02:06:55.240Z,12.70
2023-05-10T02:09:26.386Z,12.70
2023-05-10T02:11:57.649Z,12.70
2023-05-10T02:14:28.906Z,12.60
2023-05-10T02:17:00.601Z,12.60
2023-05-10T02:19:34.074Z,12.50
2023-05-10T02:22:05.315Z,12.50
2023-05-10T02:24:36.790Z,12.40
2023-05-10T02:27:07.399Z,12.50
2023-05-10T02:29:40.957Z,12.50
2023-05-10T02:32:12.130Z,12.50
2023-05-10T02:34:45.629Z,12.40
2023-05-10T02:37:16.525Z,12.40
2023-05-10T02:39:47.891Z,12.40
2023-05-10T02:42:21.489Z,12.40
2023-05-10T02:44:54.805Z,12.30
2023-05-10T02:47:24.661Z,12.30
2023-05-10T02:49:55.697Z,12.40
2023-05-10T02:52:28.444Z,12.40
2023-05-10T02:55:02.621Z,12.40
2023-05-10T02:57:35.750Z,12.30
2023-05-10T03:00:05.881Z,12.30
2023-05-10T03:02:35.523Z,12.30
2023-05-10T03:05:06.642Z,12.40
2023-05-10T03:07:37.400Z,12.30
2023-05-10T03:10:06.802Z,12.30
2023-05-10T03:12:45.483Z,12.30
2023-05-10T03:15:17.941Z,12.30
2023-05-10T03:17:57.290Z,12.30
2023-05-10T03:20:33.348Z,12.30
2023-05-10T03:23:14.006Z,12.30
2023-05-10T03:25:45.439Z,12.30
2023-05-10T03:28:16.267Z,12.30
2023-05-10T03:30:47.587Z,12.30
2023-05-10T03:33:17.366Z,12.30
2023-05-10T03:35:48.494Z,12.30
2023-05-10T03:38:18.253Z,12.40
2023-05-10T03:40:48.046Z,12.40
2023-05-10T03:43:17.989Z,12.40
2023-05-10T03:45:51.181Z,12.40
2023-05-10T03:48:20.914Z,12.30
2023-05-10T03:50:52.082Z,12.30
2023-05-10T03:53:21.987Z,12.30
2023-05-10T03:55:51.498Z,12.30
2023-05-10T03:58:21.302Z,12.20
2023-05-10T04:00:51.199Z,12.30
2023-05-10T04:03:21.241Z,12.30
2023-05-10T04:06:00.141Z,12.20
2023-05-10T04:08:30.012Z,12.20
2023-05-10T04:11:07.406Z,12.20
2023-05-10T04:13:37.167Z,12.20
2023-05-10T04:16:08.309Z,12.20
2023-05-10T04:18:38.218Z,12.20
2023-05-10T04:21:13.380Z,12.20
2023-05-10T04:23:43.148Z,12.20
2023-05-10T04:26:12.999Z,12.30
2023-05-10T04:28:42.763Z,12.40
2023-05-10T04:31:13.575Z,12.40
2023-05-10T04:33:43.298Z,12.30
2023-05-10T04:36:14.190Z,12.40
2023-05-10T04:38:44.672Z,12.30
2023-05-10T04:41:14.826Z,12.40
2023-05-10T04:43:44.585Z,12.40
2023-05-10T04:46:14.372Z,12.30
2023-05-10T04:48:44.159Z,12.40
2023-05-10T04:51:15.522Z,12.40
2023-05-10T04:53:48.594Z,12.50
2023-05-10T04:56:27.603Z,12.50
2023-05-10T04:58:57.372Z,12.40
2023-05-10T05:01:27.231Z,12.50
2023-05-10T05:03:56.897Z,12.50
2023-05-10T05:06:28.378Z,12.60
2023-05-10T05:08:58.032Z,12.50
2023-05-10T05:11:27.802Z,12.70
2023-05-10T05:13:59.810Z,12.70
2023-05-10T05:16:29.340Z,12.50
2023-05-10T05:18:59.075Z,12.60
2023-05-10T05:21:30.190Z,12.60
2023-05-10T05:23:59.990Z,12.60
2023-05-10T05:26:30.355Z,12.60
2023-05-10T05:29:00.149Z,12.60
2023-05-10T05:31:29.950Z,12.60
2023-05-10T05:33:59.565Z,12.50
2023-05-10T05:36:28.762Z,12.60
2023-05-10T05:38:58.489Z,12.60
2023-05-10T05:41:28.323Z,12.70
2023-05-10T05:43:58.089Z,12.70
2023-05-10T05:46:27.979Z,12.70
2023-05-10T05:48:57.669Z,12.80
2023-05-10T05:51:27.479Z,12.70
2023-05-10T05:53:58.931Z,12.70
2023-05-10T05:56:28.434Z,12.70
2023-05-10T05:58:58.460Z,12.60
2023-05-10T06:01:28.202Z,12.70
2023-05-10T06:03:58.045Z,12.70
2023-05-10T06:06:27.915Z,12.70
2023-05-10T06:08:59.178Z,12.70
2023-05-10T06:11:29.646Z,12.80
2023-05-10T06:13:59.437Z,12.80
2023-05-10T06:16:29.482Z,12.90
2023-05-10T06:19:00.882Z,13.00
2023-05-10T06:21:30.922Z,12.90
2023-05-10T06:24:02.069Z,13.10
2023-05-10T06:26:31.859Z,13.10
2023-05-10T06:29:02.269Z,13.20
2023-05-10T06:31:31.856Z,13.40
2023-05-10T06:34:01.654Z,13.30
2023-05-10T06:36:31.644Z,13.10
2023-05-10T06:39:02.596Z,13.10
2023-05-10T06:41:32.314Z,13.10
2023-05-10T06:44:02.095Z,13.20
2023-05-10T06:46:31.908Z,13.20
2023-05-10T06:49:01.502Z,13.30
2023-05-10T06:51:31.684Z,13.30
2023-05-10T06:54:03.216Z,13.20
2023-05-10T06:56:33.034Z,13.10
2023-05-10T06:59:02.854Z,13.30
2023-05-10T07:01:33.369Z,13.20
2023-05-10T07:04:03.290Z,13.30
2023-05-10T07:06:33.955Z,13.30
2023-05-10T07:09:05.372Z,13.30
2023-05-10T07:11:35.076Z,13.50
2023-05-10T07:14:04.938Z,13.50
2023-05-10T07:16:34.879Z,13.50
2023-05-10T07:19:06.269Z,13.50
2023-05-10T07:21:36.193Z,13.60
2023-05-10T07:24:07.318Z,13.60
2023-05-10T07:26:37.051Z,13.60
2023-05-10T07:29:06.905Z,13.50
2023-05-10T07:31:36.702Z,13.70
2023-05-10T07:34:06.413Z,13.90
2023-05-10T07:36:36.115Z,13.80
2023-05-10T07:39:07.639Z,13.80
2023-05-10T07:41:38.470Z,13.80
2023-05-10T07:44:08.424Z,13.70
2023-05-10T07:46:38.174Z,14.00
2023-05-10T07:49:08.384Z,14.10
2023-05-10T07:51:38.117Z,14.00
2023-05-10T07:54:09.244Z,13.90
2023-05-10T07:56:39.003Z,13.80
2023-05-10T07:59:10.763Z,13.90
2023-05-10T08:01:42.546Z,13.80
2023-05-10T08:04:12.536Z,13.90
2023-05-10T08:06:42.606Z,14.10
2023-05-10T08:09:13.861Z,14.30
2023-05-10T08:11:43.601Z,14.10
2023-05-10T08:14:13.342Z,14.00
2023-05-10T08:16:43.270Z,14.10
2023-05-10T08:19:13.079Z,14.30
2023-05-10T08:21:43.343Z,14.30
2023-05-10T08:24:14.310Z,14.30
2023-05-10T08:26:44.021Z,14.30
2023-05-10T08:29:13.643Z,14.30
2023-05-10T08:31:43.445Z,14.30
2023-05-10T08:34:13.226Z,14.40
2023-05-10T08:36:43.009Z,14.60
2023-05-10T08:39:26.807Z,14.60
2023-05-10T08:42:03.379Z,14.80
2023-05-10T08:44:34.415Z,14.70
2023-05-10T08:47:07.397Z,14.60
2023-05-10T08:49:39.216Z,14.50
2023-05-10T08:52:10.117Z,14.50
2023-05-10T08:54:41.794Z,14.60
2023-05-10T08:57:11.538Z,14.50
2023-05-10T08:59:41.391Z,14.80
2023-05-10T09:02:13.758Z,14.70
2023-05-10T09:04:43.425Z,14.90
2023-05-10T09:07:13.400Z,15.20
2023-05-10T09:09:44.707Z,15.40
2023-05-10T09:12:16.557Z,15.70
2023-05-10T09:14:47.538Z,15.30
2023-05-10T09:17:17.592Z,15.30
2023-05-10T09:19:48.747Z,15.30
2023-05-10T09:22:19.384Z,15.30
2023-05-10T09:24:50.684Z,15.60
2023-05-10T09:27:28.142Z,15.80
2023-05-10T09:29:58.383Z,16.10
2023-05-10T09:32:40.049Z,16.50
2023-05-10T09:35:14.382Z,16.50
2023-05-10T09:37:46.914Z,16.60
2023-05-10T09:40:19.878Z,17.20
2023-05-10T09:42:56.126Z,17.30
2023-05-10T09:45:26.981Z,16.90
2023-05-10T09:47:57.175Z,16.40
2023-05-10T09:50:27.563Z,16.40
2023-05-10T09:52:59.417Z,16.80
2023-05-10T09:55:41.232Z,16.90
2023-05-10T09:58:11.917Z,16.90
2023-05-10T10:00:43.177Z,17.00
2023-05-10T10:03:17.582Z,17.00
2023-05-10T10:05:48.809Z,16.70
2023-05-10T10:08:19.245Z,16.40
2023-05-10T10:10:53.686Z,16.80
2023-05-10T10:13:23.672Z,16.80
2023-05-10T10:15:54.149Z,17.20
2023-05-10T10:18:28.097Z,17.30
2023-05-10T10:20:59.029Z,17.30
2023-05-10T10:23:29.226Z,17.30
2023-05-10T10:26:00.981Z,17.10
2023-05-10T10:28:38.793Z,17.30
2023-05-10T10:31:19.960Z,17.30
2023-05-10T10:34:02.804Z,17.40
2023-05-10T10:36:34.831Z,17.20
2023-05-10T10:39:10.535Z,16.70
2023-05-10T10:41:50.752Z,16.90
2023-05-10T10:44:41.506Z,17.00
2023-05-10T10:47:25.136Z,16.80
2023-05-10T10:50:05.259Z,16.90
2023-05-10T10:52:36.457Z,17.00
2023-05-10T10:55:07.507Z,17.10
2023-05-10T10:57:46.591Z,17.20
2023-05-10T11:00:22.654Z,16.90
2023-05-10T11:02:53.608Z,16.50
2023-05-10T11:05:46.449Z,16.00
2023-05-10T11:08:22.898Z,15.90
2023-05-10T11:11:05.529Z,15.60
2023-05-10T11:13:40.000Z,15.40
2023-05-10T11:16:21.562Z,15.20
2023-05-10T11:19:14.319Z,15.00
2023-05-10T11:21:51.917Z,14.50
2023-05-10T11:24:24.097Z,14.50
2023-05-10T11:26:55.362Z,14.60
2023-05-10T11:29:27.624Z,14.40
2023-05-10T11:32:01.189Z,14.10
2023-05-10T11:34:34.382Z,14.00
2023-05-10T11:37:04.107Z,13.90
2023-05-10T11:39:35.931Z,13.80
2023-05-10T11:42:05.852Z,13.70
2023-05-10T11:44:36.965Z,13.80
2023-05-10T11:47:07.254Z,13.80
2023-05-10T11:49:36.814Z,13.90
2023-05-10T11:52:10.063Z,13.90
2023-05-10T11:54:40.110Z,14.00
2023-05-10T11:57:10.069Z,14.40
2023-05-10T11:59:43.185Z,14.50
2023-05-10T12:02:11.991Z,14.80
2023-05-10T12:04:44.540Z,14.90
2023-05-10T12:07:18.798Z,15.20
2023-05-10T12:10:03.761Z,15.60
2023-05-10T12:12:38.886Z,16.00
2023-05-10T12:15:20.472Z,16.20
2023-05-10T12:17:51.398Z,16.70
2023-05-10T12:20:23.278Z,17.10
2023-05-10T12:22:55.018Z,16.90
2023-05-10T12:25:25.663Z,16.50
2023-05-10T12:27:57.009Z,16.50
2023-05-10T12:30:30.023Z,16.70
2023-05-10T12:33:05.246Z,16.80
2023-05-10T12:35:35.860Z,17.00
2023-05-10T12:38:27.313Z,16.80
2023-05-10T12:40:57.014Z,16.60
2023-05-10T12:43:26.803Z,16.50
2023-05-10T12:45:58.412Z,16.30
2023-05-10T12:48:29.704Z,15.90
2023-05-10T12:50:59.267Z,15.90
2023-05-10T12:53:29.020Z,15.80
2023-05-10T12:55:59.070Z,15.70
2023-05-10T12:58:35.626Z,15.60
2023-05-10T13:01:07.383Z,15.70
2023-05-10T13:03:36.890Z,15.90
2023-05-10T13:06:07.224Z,15.90
2023-05-10T13:08:37.137Z,16.00
2023-05-10T13:11:07.661Z,16.00
2023-05-10T13:13:38.958Z,16.00
2023-05-10T13:16:10.749Z,16.10
2023-05-10T13:18:40.621Z,16.20
2023-05-10T13:21:10.422Z,16.20
2023-05-10T13:23:40.206Z,16.50
2023-05-10T13:26:10.003Z,16.60
2023-05-10T13:28:40.489Z,16.50
2023-05-10T13:31:11.748Z,16.90
2023-05-10T13:33:41.576Z,17.20
2023-05-10T13:36:11.278Z,17.40
2023-05-10T13:38:41.057Z,17.80
2023-05-10T13:41:11.075Z,17.80
2023-05-10T13:43:40.840Z,17.80
2023-05-10T13:46:11.803Z,17.90
2023-05-10T13:48:41.661Z,18.30
2023-05-10T13:51:11.183Z,18.40
2023-05-10T13:53:41.066Z,18.10
2023-05-10T13:56:10.893Z,18.00
2023-05-10T13:58:42.268Z,18.10
2023-05-10T14:01:13.798Z,18.20
2023-05-10T14:03:43.851Z,18.30
2023-05-10T14:06:13.473Z,18.40
2023-05-10T14:08:49.815Z,18.60
2023-05-10T14:11:19.634Z,18.80
2023-05-10T14:13:49.277Z,18.50
2023-05-10T14:16:21.042Z,18.10
2023-05-10T14:18:50.619Z,18.30
2023-05-10T14:21:20.161Z,18.20
2023-05-10T14:23:49.930Z,18.50
2023-05-10T14:26:17.818Z,18.60
2023-05-10T14:28:47.364Z,18.70
2023-05-10T14:31:18.025Z,18.30
2023-05-10T14:33:49.097Z,18.10
2023-05-10T14:36:19.076Z,17.60
2023-05-10T14:38:48.668Z,17.10
2023-05-10T14:41:19.546Z,17.20
2023-05-10T14:43:49.392Z,17.30
2023-05-10T14:46:19.709Z,17.20
2023-05-10T14:48:50.842Z,17.10
2023-05-10T14:51:22.642Z,17.20
2023-05-10T14:53:52.350Z,17.20
2023-05-10T14:56:22.466Z,17.20
2023-05-10T14:58:53.025Z,17.10
2023-05-10T15:01:23.237Z,17.10
2023-05-10T15:03:54.685Z,17.10
2023-05-10T15:06:32.306Z,17.10
2023-05-10T15:09:02.263Z,17.20
2023-05-10T15:11:32.163Z,17.10
2023-05-10T15:14:02.584Z,17.00
2023-05-10T15:16:35.025Z,17.10
2023-05-10T15:19:06.877Z,17.30
2023-05-10T15:21:39.654Z,17.50
2023-05-10T15:24:09.281Z,17.70
2023-05-10T15:26:39.112Z,17.70
2023-05-10T15:29:08.877Z,17.50
2023-05-10T15:31:40.639Z,17.60
2023-05-10T15:34:11.554Z,17.40
2023-05-10T15:36:41.474Z,17.50
2023-05-10T15:39:11.149Z,17.80
2023-05-10T15:41:41.519Z,17.60
2023-05-10T15:44:11.966Z,17.70
2023-05-10T15:46:41.787Z,17.90
2023-05-10T15:49:12.712Z,18.00
2023-05-10T15:51:42.565Z,18.10
2023-05-10T15:54:12.983Z,18.00
2023-05-10T15:56:42.849Z,18.00
2023-05-10T15:59:12.678Z,17.90
2023-05-10T16:01:42.457Z,17.80
2023-05-10T16:04:13.685Z,17.80
2023-05-10T16:06:43.468Z,17.50
2023-05-10T16:09:13.220Z,17.10
2023-05-10T16:11:43.917Z,16.90
2023-05-10T16:14:13.671Z,16.80
2023-05-10T16:16:44.382Z,16.70
2023-05-10T16:19:15.871Z,16.50
2023-05-10T16:21:45.749Z,16.50
2023-05-10T16:24:15.618Z,16.60
2023-05-10T16:26:45.393Z,16.80
2023-05-10T16:29:15.114Z,17.00
2023-05-10T16:31:44.962Z,16.90
2023-05-10T16:34:16.266Z,16.70
2023-05-10T16:36:45.720Z,16.80
2023-05-10T16:39:15.638Z,16.70
2023-05-10T16:41:45.145Z,16.60
2023-05-10T16:44:15.029Z,16.80
2023-05-10T16:46:45.545Z,17.00
2023-05-10T16:49:16.877Z,16.90
2023-05-10T16:51:46.619Z,16.90
2023-05-10T16:54:17.235Z,16.60
2023-05-10T16:56:46.786Z,16.80
2023-05-10T16:59:17.916Z,16.70
2023-05-10T17:01:48.179Z,16.40
2023-05-10T17:04:19.556Z,16.40
2023-05-10T17:06:49.296Z,16.40
2023-05-10T17:09:20.144Z,16.60
2023-05-10T17:11:50.046Z,16.70
2023-05-10T17:14:19.771Z,16.50
2023-05-10T17:16:52.609Z,16.40
2023-05-10T17:19:25.601Z,16.30
2023-05-10T17:21:56.192Z,16.30
2023-05-10T17:24:26.986Z,16.10
2023-05-10T17:26:57.406Z,16.10
2023-05-10T17:29:28.908Z,16.10
2023-05-10T17:31:58.886Z,16.20
2023-05-10T17:34:29.871Z,16.20
2023-05-10T17:36:57.909Z,16.40
2023-05-10T17:39:29.459Z,16.50
2023-05-10T17:41:59.298Z,16.30
2023-05-10T17:44:29.085Z,16.00
2023-05-10T17:46:58.709Z,15.70
2023-05-10T17:49:28.701Z,15.70
2023-05-10T17:51:58.335Z,15.90
2023-05-10T17:54:28.153Z,15.90
2023-05-10T17:56:58.069Z,15.90
2023-05-10T17:59:28.364Z,15.70
2023-05-10T18:01:58.125Z,15.30
2023-05-10T18:04:27.840Z,15.20
2023-05-10T18:07:01.423Z,15.40
2023-05-10T18:09:31.737Z,15.50
2023-05-10T18:12:02.811Z,15.20
2023-05-10T18:14:40.616Z,15.00
2023-05-10T18:17:11.224Z,15.00
2023-05-10T18:19:40.898Z,15.00
2023-05-10T18:22:12.678Z,15.10
2023-05-10T18:24:42.185Z,15.20
2023-05-10T18:27:11.971Z,15.20
2023-05-10T18:29:42.302Z,15.20
2023-05-10T18:32:12.106Z,15.30
2023-05-10T18:34:41.882Z,15.20
2023-05-10T18:37:12.848Z,15.10
2023-05-10T18:39:44.057Z,14.80
2023-05-10T18:42:13.948Z,14.50
2023-05-10T18:44:43.717Z,14.20
2023-05-10T18:47:13.485Z,13.90
2023-05-10T18:49:45.165Z,13.90
2023-05-10T18:52:16.870Z,13.90
2023-05-10T18:54:46.690Z,13.90
2023-05-10T18:57:16.531Z,13.80
2023-05-10T18:59:46.507Z,13.60
2023-05-10T19:02:16.246Z,13.60
2023-05-10T19:04:46.165Z,13.40
2023-05-10T19:07:17.024Z,13.40
2023-05-10T19:09:46.660Z,13.30
2023-05-10T19:12:16.458Z,13.30
2023-05-10T19:14:46.371Z,13.20
2023-05-10T19:17:16.949Z,13.20
2023-05-10T19:19:47.404Z,13.20
2023-05-10T19:22:21.420Z,13.10
2023-05-10T19:24:58.455Z,13.10
2023-05-10T19:27:28.118Z,13.20
2023-05-10T19:29:58.014Z,13.20
2023-05-10T19:32:28.345Z,13.10
2023-05-10T19:34:57.987Z,13.00
2023-05-10T19:37:28.893Z,13.00
2023-05-10T19:39:58.661Z,13.00
2023-05-10T19:42:28.224Z,13.00
2023-05-10T19:44:58.072Z,13.10
2023-05-10T19:47:28.018Z,13.10
2023-05-10T19:49:57.929Z,13.00
2023-05-10T19:52:29.259Z,13.00
2023-05-10T19:54:59.084Z,13.00
2023-05-10T19:57:28.965Z,13.10
2023-05-10T19:59:58.734Z,13.10
2023-05-10T20:02:28.520Z,13.00
2023-05-10T20:04:58.439Z,12.90
2023-05-10T20:07:29.439Z,13.00
2023-05-10T20:09:59.312Z,13.00
2023-05-10T20:12:29.108Z,12.90
2023-05-10T20:14:58.852Z,12.90
2023-05-10T20:17:28.683Z,12.90
2023-05-10T20:19:58.565Z,12.90
2023-05-10T20:22:29.558Z,12.90
2023-05-10T20:24:59.377Z,13.00
2023-05-10T20:27:29.167Z,13.00
2023-05-10T20:29:58.879Z,13.00
2023-05-10T20:32:28.710Z,13.00
2023-05-10T20:34:58.531Z,13.00
2023-05-10T20:37:29.950Z,12.90
2023-05-10T20:40:00.598Z,12.70
2023-05-10T20:42:30.766Z,12.70
2023-05-10T20:45:01.024Z,12.90
2023-05-10T20:47:30.975Z,12.90
2023-05-10T20:50:00.553Z,12.90
2023-05-10T20:52:31.739Z,12.80
2023-05-10T20:55:01.575Z,12.70
2023-05-10T20:57:31.328Z,12.60
2023-05-10T21:00:01.117Z,12.70
2023-05-10T21:02:30.959Z,12.80
2023-05-10T21:05:00.824Z,12.80
2023-05-10T21:07:32.843Z,12.70
2023-05-10T21:10:03.042Z,12.60
2023-05-10T21:12:32.728Z,12.50
2023-05-10T21:15:02.574Z,12.50
2023-05-10T21:17:32.434Z,12.50
2023-05-10T21:20:02.268Z,12.50
2023-05-10T21:22:33.425Z,12.50
2023-05-10T21:25:03.169Z,12.60
2023-05-10T21:27:31.107Z,12.60
2023-05-10T21:30:00.900Z,12.60
2023-05-10T21:32:30.819Z,12.60
2023-05-10T21:35:00.453Z,12.60
2023-05-10T21:37:30.304Z,12.70
2023-05-10T21:40:01.806Z,12.70
2023-05-10T21:42:31.742Z,12.70
2023-05-10T21:45:01.621Z,12.60
2023-05-10T21:47:31.466Z,12.50
2023-05-10T21:50:01.363Z,12.50
2023-05-10T21:52:29.226Z,12.40
2023-05-10T21:54:59.024Z,12.30
2023-05-10T21:57:30.027Z,12.20
2023-05-10T21:59:59.793Z,12.20
2023-05-10T22:02:29.818Z,12.20
2023-05-10T22:04:59.650Z,12.10
2023-05-10T22:07:29.422Z,12.10
2023-05-10T22:09:59.593Z,12.20
2023-05-10T22:12:30.816Z,12.30
2023-05-10T22:15:10.179Z,12.30
2023-05-10T22:17:41.150Z,12.50
2023-05-10T22:20:10.126Z,12.50
2023-05-10T22:22:39.650Z,12.60
2023-05-10T22:25:09.940Z,12.50
2023-05-10T22:27:41.000Z,12.50
2023-05-10T22:30:12.360Z,12.40
2023-05-10T22:32:41.877Z,12.40
2023-05-10T22:35:12.878Z,12.30
2023-05-10T22:37:42.583Z,12.30
2023-05-10T22:40:13.848Z,12.30
2023-05-10T22:42:44.971Z,12.20
2023-05-10T22:45:15.096Z,12.10
2023-05-10T22:47:47.004Z,12.00
2023-05-10T22:50:17.727Z,12.00
2023-05-10T22:52:47.544Z,11.90
2023-05-10T22:55:17.389Z,11.60
2023-05-10T22:57:48.585Z,11.40
2023-05-10T23:00:20.100Z,11.30
2023-05-10T23:02:50.164Z,11.30
2023-05-10T23:05:19.871Z,11.30
2023-05-10T23:07:53.170Z,11.40
2023-05-10T23:10:23.185Z,11.30
2023-05-10T23:12:55.500Z,11.10
2023-05-10T23:15:25.018Z,11.00
2023-05-10T23:17:54.839Z,11.00
2023-05-10T23:20:24.783Z,11.00
2023-05-10T23:22:54.530Z,11.00
2023-05-10T23:25:24.343Z,11.10
2023-05-10T23:27:55.473Z,11.00
2023-05-10T23:30:25.171Z,10.80
2023-05-10T23:32:55.023Z,10.70
2023-05-10T23:35:24.620Z,10.60
2023-05-10T23:37:54.564Z,10.60
2023-05-10T23:40:24.173Z,10.50
2023-05-10T23:42:55.260Z,10.50
2023-05-10T23:45:24.983Z,10.50
2023-05-10T23:47:54.782Z,10.40
2023-05-10T23:50:24.614Z,10.40
2023-05-10T23:52:54.371Z,10.50
2023-05-10T23:55:24.106Z,10.40
2023-05-10T23:57:55.390Z,10.30
